Time;durP1;ratioP1;P1;durP2;ratioP2;P2;SDS_P1;SDS_P2;PMS_P1;PMS_P2;Temp;Humidity;BMP_temperature;BMP_pressure;BME280_temperature;BME280_humidity;BME280_pressure;Samples;Min_cycle;Max_cycle;Signal;HPM_P1;HPM_P2
2021/10/30 00:01:30;;;;;;;0.10;0.10;;;;;;;;;;5047561;28;20216;-71
2021/10/30 00:03:57;;;;;;;0.10;0.10;;;;;;;;;;5049052;28;20206;-70
2021/10/30 00:06:24;;;;;;;0.10;0.10;;;;;;;;;;5046611;28;20211;-70
2021/10/30 00:08:50;;;;;;;0.10;0.10;;;;;;;;;;5055253;28;20228;-72
2021/10/30 00:11:17;;;;;;;0.10;0.10;;;;;;;;;;5046340;28;20205;-72
2021/10/30 00:13:44;;;;;;;0.10;0.10;;;;;;;;;;5049957;28;20420;-71
2021/10/30 00:16:10;;;;;;;0.10;0.10;;;;;;;;;;5045845;28;20243;-71
2021/10/30 00:18:36;;;;;;;0.10;0.10;;;;;;;;;;5045899;28;20205;-71
2021/10/30 00:21:03;;;;;;;0.10;0.10;;;;;;;;;;5046266;28;20429;-72
2021/10/30 00:23:30;;;;;;;0.10;0.10;;;;;;;;;;5045814;28;20204;-70
2021/10/30 00:25:56;;;;;;;0.10;0.10;;;;;;;;;;5052140;28;20208;-72
2021/10/30 00:28:23;;;;;;;0.10;0.10;;;;;;;;;;5053487;28;20222;-70
2021/10/30 00:30:49;;;;;;;0.17;0.17;;;;;;;;;;5048283;28;20294;-70
2021/10/30 00:33:15;;;;;;;0.97;0.97;;;;;;;;;;5047061;28;20424;-70
2021/10/30 00:35:41;;;;;;;0.10;0.10;;;;;;;;;;5059561;28;20297;-74
2021/10/30 00:38:08;;;;;;;0.10;0.10;;;;;;;;;;5062645;28;20228;-70
2021/10/30 00:40:35;;;;;;;0.10;0.10;;;;;;;;;;5063799;28;20342;-71
2021/10/30 00:43:01;;;;;;;12.10;11.13;;;;;;;;;;5054077;28;20300;-70
2021/10/30 00:45:29;;;;;;;0.10;0.10;;;;;;;;;;5057999;28;20203;-72
2021/10/30 00:47:55;;;;;;;0.20;0.20;;;;;;;;;;5057476;28;20260;-70
2021/10/30 00:50:21;;;;;;;0.10;0.10;;;;;;;;;;5065524;28;20262;-70
2021/10/30 00:52:48;;;;;;;0.20;0.20;;;;;;;;;;5057922;28;20215;-72
2021/10/30 00:55:15;;;;;;;4.83;4.40;;;;;;;;;;5065378;28;20204;-72
2021/10/30 00:57:43;;;;;;;0.10;0.10;;;;;;;;;;5065503;28;20228;-72
2021/10/30 01:00:10;;;;;;;0.20;0.20;;;;;;;;;;5063868;28;20204;-72
2021/10/30 01:02:37;;;;;;;0.13;0.13;;;;;;;;;;5058932;28;20500;-73
2021/10/30 01:05:04;;;;;;;0.10;0.10;;;;;;;;;;5057460;28;20209;-72
2021/10/30 01:07:31;;;;;;;0.20;0.20;;;;;;;;;;5045504;28;20209;-71
2021/10/30 01:09:57;;;;;;;0.20;0.20;;;;;;;;;;5062995;28;20229;-71
2021/10/30 01:12:23;;;;;;;0.77;0.73;;;;;;;;;;5061364;28;20201;-71
2021/10/30 01:14:52;;;;;;;0.10;0.10;;;;;;;;;;5053153;28;20225;-71
2021/10/30 01:17:18;;;;;;;0.10;0.10;;;;;;;;;;5048668;28;20208;-71
2021/10/30 01:19:44;;;;;;;0.10;0.10;;;;;;;;;;5045041;28;20201;-70
2021/10/30 01:22:12;;;;;;;0.10;0.10;;;;;;;;;;5050558;28;20255;-71
2021/10/30 01:24:38;;;;;;;0.10;0.10;;;;;;;;;;5052758;28;20241;-71
2021/10/30 01:27:04;;;;;;;0.10;0.10;;;;;;;;;;5044614;28;20238;-72
2021/10/30 01:29:32;;;;;;;0.17;0.17;;;;;;;;;;5054772;28;20227;-71
2021/10/30 01:31:58;;;;;;;1.27;1.27;;;;;;;;;;5048501;28;20244;-72
2021/10/30 01:34:28;;;;;;;2.33;2.23;;;;;;;;;;5044687;28;20267;-71
2021/10/30 01:36:55;;;;;;;0.10;0.10;;;;;;;;;;5044373;28;20227;-71
2021/10/30 01:39:23;;;;;;;0.10;0.10;;;;;;;;;;5044647;28;20244;-71
2021/10/30 01:41:49;;;;;;;0.10;0.10;;;;;;;;;;5044348;28;20210;-72
2021/10/30 01:44:16;;;;;;;0.10;0.10;;;;;;;;;;5055028;28;20251;-72
2021/10/30 01:46:42;;;;;;;0.10;0.10;;;;;;;;;;5064378;28;20204;-72
2021/10/30 01:49:08;;;;;;;0.10;0.10;;;;;;;;;;5060927;28;20257;-71
2021/10/30 01:51:35;;;;;;;0.17;0.17;;;;;;;;;;5044301;28;20205;-71
2021/10/30 01:54:01;;;;;;;0.10;0.10;;;;;;;;;;5045842;28;20505;-71
2021/10/30 01:56:29;;;;;;;0.10;0.10;;;;;;;;;;5056270;28;20206;-70
2021/10/30 01:58:55;;;;;;;0.10;0.10;;;;;;;;;;5058148;28;20204;-71
2021/10/30 02:01:22;;;;;;;0.20;0.20;;;;;;;;;;5044060;28;20279;-71
2021/10/30 02:03:48;;;;;;;0.10;0.10;;;;;;;;;;5044108;28;20205;-71
2021/10/30 02:06:14;;;;;;;0.73;0.73;;;;;;;;;;5058142;28;20404;-70
2021/10/30 02:08:40;;;;;;;0.30;0.30;;;;;;;;;;5044001;28;20278;-71
2021/10/30 02:11:07;;;;;;;0.10;0.10;;;;;;;;;;5043866;28;20250;-70
2021/10/30 02:13:35;;;;;;;0.10;0.10;;;;;;;;;;5044017;28;20227;-71
2021/10/30 02:16:01;;;;;;;0.40;0.40;;;;;;;;;;5058029;28;20252;-71
2021/10/30 02:18:27;;;;;;;0.10;0.10;;;;;;;;;;5043423;28;20196;-72
2021/10/30 02:20:54;;;;;;;0.10;0.10;;;;;;;;;;5043335;28;20490;-72
2021/10/30 02:23:20;;;;;;;0.10;0.10;;;;;;;;;;5043288;28;20229;-71
2021/10/30 02:25:46;;;;;;;0.53;0.53;;;;;;;;;;5043705;28;20200;-71
2021/10/30 02:28:13;;;;;;;0.10;0.10;;;;;;;;;;5043268;28;20201;-71
2021/10/30 02:30:40;;;;;;;0.30;0.30;;;;;;;;;;5042987;28;20244;-72
2021/10/30 02:33:06;;;;;;;0.10;0.10;;;;;;;;;;5043328;28;20213;-69
2021/10/30 02:35:33;;;;;;;0.10;0.10;;;;;;;;;;5059574;28;20242;-72
2021/10/30 02:37:59;;;;;;;0.10;0.10;;;;;;;;;;5043152;28;20388;-71
2021/10/30 02:40:25;;;;;;;0.10;0.10;;;;;;;;;;5043243;28;20208;-70
2021/10/30 02:42:52;;;;;;;0.10;0.10;;;;;;;;;;5043328;28;20239;-71
2021/10/30 02:45:18;;;;;;;0.30;0.30;;;;;;;;;;5043528;28;20275;-70
2021/10/30 02:47:46;;;;;;;2.30;2.20;;;;;;;;;;5043518;28;20392;-71
2021/10/30 02:50:12;;;;;;;0.23;0.23;;;;;;;;;;5055333;28;20273;-71
2021/10/30 02:52:39;;;;;;;0.10;0.10;;;;;;;;;;5058724;28;20201;-71
2021/10/30 02:55:05;;;;;;;0.10;0.10;;;;;;;;;;5053577;28;20208;-71
2021/10/30 02:57:32;;;;;;;0.73;0.73;;;;;;;;;;5048929;28;20204;-70
2021/10/30 02:59:58;;;;;;;0.40;0.40;;;;;;;;;;5054456;28;20484;-71
2021/10/30 03:02:25;;;;;;;0.10;0.10;;;;;;;;;;5043245;28;20204;-71
2021/10/30 03:04:52;;;;;;;0.60;0.60;;;;;;;;;;5042781;28;20197;-72
2021/10/30 03:07:19;;;;;;;0.20;0.20;;;;;;;;;;5042838;28;20212;-71
2021/10/30 03:09:49;;;;;;;0.10;0.10;;;;;;;;;;5056724;28;20499;-70
2021/10/30 03:12:16;;;;;;;0.20;0.20;;;;;;;;;;5043076;28;20270;-71
2021/10/30 03:14:42;;;;;;;0.10;0.10;;;;;;;;;;5042711;28;20258;-71
2021/10/30 03:17:08;;;;;;;0.20;0.20;;;;;;;;;;5042734;28;20208;-72
2021/10/30 03:19:35;;;;;;;0.40;0.40;;;;;;;;;;5043080;28;20427;-69
2021/10/30 03:22:03;;;;;;;0.10;0.10;;;;;;;;;;5043383;28;20207;-70
2021/10/30 03:24:29;;;;;;;7.07;6.33;;;;;;;;;;5060878;28;20207;-71
2021/10/30 03:26:56;;;;;;;0.20;0.20;;;;;;;;;;5058054;28;20208;-71
2021/10/30 03:29:22;;;;;;;0.10;0.10;;;;;;;;;;5057925;28;20289;-71
2021/10/30 03:31:48;;;;;;;0.40;0.40;;;;;;;;;;5057033;28;20461;-71
2021/10/30 03:34:14;;;;;;;0.20;0.20;;;;;;;;;;5067099;28;20208;-71
2021/10/30 03:36:40;;;;;;;10.20;8.10;;;;;;;;;;5058131;28;20246;-71
2021/10/30 03:39:08;;;;;;;0.10;0.10;;;;;;;;;;5060678;28;20199;-72
2021/10/30 03:41:34;;;;;;;0.10;0.10;;;;;;;;;;5064754;28;20215;-72
2021/10/30 03:44:01;;;;;;;0.10;0.10;;;;;;;;;;5063948;28;20219;-71
2021/10/30 03:46:27;;;;;;;0.20;0.20;;;;;;;;;;5066454;28;20417;-70
2021/10/30 03:48:53;;;;;;;0.13;0.13;;;;;;;;;;5048089;28;20226;-71
2021/10/30 03:51:19;;;;;;;0.10;0.10;;;;;;;;;;5061537;28;20212;-71
2021/10/30 03:53:46;;;;;;;0.10;0.10;;;;;;;;;;5061839;28;20208;-71
2021/10/30 03:56:13;;;;;;;0.20;0.20;;;;;;;;;;5056957;28;20205;-71
2021/10/30 03:58:39;;;;;;;0.77;0.77;;;;;;;;;;5063593;28;20517;-70
2021/10/30 04:01:06;;;;;;;0.10;0.10;;;;;;;;;;5059306;28;20203;-71
2021/10/30 04:03:32;;;;;;;0.10;0.10;;;;;;;;;;5060422;28;20266;-71
2021/10/30 04:05:58;;;;;;;0.10;0.10;;;;;;;;;;5062218;28;20245;-71
2021/10/30 04:08:24;;;;;;;0.20;0.20;;;;;;;;;;5066514;28;20204;-71
2021/10/30 04:10:51;;;;;;;2.83;2.30;;;;;;;;;;5061300;28;20446;-70
2021/10/30 04:13:18;;;;;;;0.27;0.27;;;;;;;;;;5061566;28;20414;-70
2021/10/30 04:15:44;;;;;;;0.20;0.20;;;;;;;;;;5062376;28;20265;-71
2021/10/30 04:18:11;;;;;;;0.10;0.10;;;;;;;;;;5050056;28;20247;-70
2021/10/30 04:20:37;;;;;;;0.10;0.10;;;;;;;;;;5046179;28;20208;-71
2021/10/30 04:23:03;;;;;;;0.10;0.10;;;;;;;;;;5059014;28;20213;-71
2021/10/30 04:25:29;;;;;;;0.20;0.20;;;;;;;;;;5047133;28;20202;-70
2021/10/30 04:27:55;;;;;;;0.10;0.10;;;;;;;;;;5046109;28;20269;-70
2021/10/30 04:30:23;;;;;;;2.57;2.47;;;;;;;;;;5045720;28;20279;-71
2021/10/30 04:32:50;;;;;;;0.10;0.10;;;;;;;;;;5045643;28;20217;-71
2021/10/30 04:35:16;;;;;;;0.20;0.20;;;;;;;;;;5045851;28;20223;-71
2021/10/30 04:37:42;;;;;;;0.10;0.10;;;;;;;;;;5053125;28;20215;-72
2021/10/30 04:40:09;;;;;;;0.10;0.10;;;;;;;;;;5052409;28;20252;-71
2021/10/30 04:42:35;;;;;;;0.10;0.10;;;;;;;;;;5050453;28;20411;-72
2021/10/30 04:45:03;;;;;;;0.10;0.10;;;;;;;;;;5053810;28;20212;-71
2021/10/30 04:47:31;;;;;;;0.13;0.13;;;;;;;;;;5045392;28;20226;-71
2021/10/30 04:49:57;;;;;;;0.10;0.10;;;;;;;;;;5055522;28;20231;-71
2021/10/30 04:52:24;;;;;;;0.20;0.20;;;;;;;;;;5048756;28;20208;-71
2021/10/30 04:54:50;;;;;;;0.10;0.10;;;;;;;;;;5045162;28;20273;-72
2021/10/30 04:57:16;;;;;;;0.77;0.77;;;;;;;;;;5045306;28;20243;-70
2021/10/30 04:59:43;;;;;;;0.10;0.10;;;;;;;;;;5045352;28;20200;-70
2021/10/30 05:02:09;;;;;;;0.20;0.20;;;;;;;;;;5053940;28;20206;-70
2021/10/30 05:04:36;;;;;;;0.20;0.20;;;;;;;;;;5044927;28;20205;-71
2021/10/30 05:07:03;;;;;;;0.33;0.33;;;;;;;;;;5044836;28;20208;-71
2021/10/30 05:09:30;;;;;;;0.20;0.20;;;;;;;;;;5045017;28;20258;-71
2021/10/30 05:11:57;;;;;;;1.60;1.60;;;;;;;;;;5054345;28;20205;-71
2021/10/30 05:14:23;;;;;;;0.20;0.20;;;;;;;;;;5049332;28;20217;-70
2021/10/30 05:16:49;;;;;;;0.13;0.13;;;;;;;;;;5044632;28;20200;-70
2021/10/30 05:19:16;;;;;;;0.67;0.67;;;;;;;;;;5045104;28;20519;-71
2021/10/30 05:21:45;;;;;;;0.10;0.10;;;;;;;;;;5046734;28;20209;-71
2021/10/30 05:24:12;;;;;;;0.40;0.40;;;;;;;;;;5056967;28;20329;-71
2021/10/30 05:26:38;;;;;;;0.10;0.10;;;;;;;;;;5045011;28;20330;-70
2021/10/30 05:29:04;;;;;;;0.10;0.10;;;;;;;;;;5050851;28;20250;-71
2021/10/30 05:31:30;;;;;;;0.10;0.10;;;;;;;;;;5064862;28;20538;-70
2021/10/30 05:33:57;;;;;;;0.20;0.20;;;;;;;;;;5046040;28;20204;-71
2021/10/30 05:36:26;;;;;;;0.10;0.10;;;;;;;;;;5044812;28;20208;-71
2021/10/30 05:38:54;;;;;;;0.40;0.40;;;;;;;;;;5047513;28;20343;-70
2021/10/30 05:41:20;;;;;;;0.10;0.10;;;;;;;;;;5055076;28;20204;-70
2021/10/30 05:43:47;;;;;;;0.10;0.10;;;;;;;;;;5044563;28;20204;-70
2021/10/30 05:46:13;;;;;;;0.20;0.20;;;;;;;;;;5044297;28;20511;-71
2021/10/30 05:48:40;;;;;;;0.10;0.10;;;;;;;;;;5044634;28;20242;-71
2021/10/30 05:51:06;;;;;;;0.10;0.10;;;;;;;;;;5044122;28;20228;-71
2021/10/30 05:53:32;;;;;;;0.20;0.20;;;;;;;;;;5045369;28;20220;-71
2021/10/30 05:56:00;;;;;;;0.20;0.20;;;;;;;;;;5047622;28;20393;-70
2021/10/30 05:58:26;;;;;;;0.20;0.20;;;;;;;;;;5064269;28;20257;-70
2021/10/30 06:00:53;;;;;;;0.10;0.10;;;;;;;;;;5047998;28;20208;-71
2021/10/30 06:03:19;;;;;;;0.10;0.10;;;;;;;;;;5052426;28;20203;-71
2021/10/30 06:05:45;;;;;;;0.10;0.10;;;;;;;;;;5063552;28;20275;-70
2021/10/30 06:08:12;;;;;;;0.13;0.13;;;;;;;;;;5044152;28;20200;-71
2021/10/30 06:10:38;;;;;;;0.10;0.10;;;;;;;;;;5056396;28;20228;-70
2021/10/30 06:13:05;;;;;;;0.10;0.10;;;;;;;;;;5045398;28;20442;-70
2021/10/30 06:15:32;;;;;;;0.20;0.20;;;;;;;;;;5043989;28;20200;-70
2021/10/30 06:17:58;;;;;;;0.10;0.10;;;;;;;;;;5043828;28;20214;-71
2021/10/30 06:20:24;;;;;;;0.10;0.10;;;;;;;;;;5048751;28;20203;-70
2021/10/30 06:22:50;;;;;;;0.10;0.10;;;;;;;;;;5063518;28;20441;-71
2021/10/30 06:25:16;;;;;;;0.10;0.10;;;;;;;;;;5063785;28;20200;-70
2021/10/30 06:27:44;;;;;;;4.60;2.23;;;;;;;;;;5054603;28;20207;-71
2021/10/30 06:30:12;;;;;;;0.10;0.10;;;;;;;;;;5043215;28;20265;-71
2021/10/30 06:32:38;;;;;;;0.20;0.20;;;;;;;;;;5043714;28;20251;-72
2021/10/30 06:35:06;;;;;;;0.10;0.10;;;;;;;;;;5043339;28;20200;-73
2021/10/30 06:37:32;;;;;;;0.10;0.10;;;;;;;;;;5043568;28;20211;-71
2021/10/30 06:39:58;;;;;;;0.10;0.10;;;;;;;;;;5043426;28;20200;-71
2021/10/30 06:42:25;;;;;;;0.20;0.20;;;;;;;;;;5043410;28;20204;-71
2021/10/30 06:44:51;;;;;;;0.10;0.10;;;;;;;;;;5043398;28;20496;-71
2021/10/30 06:47:18;;;;;;;0.10;0.10;;;;;;;;;;5057105;28;20272;-71
2021/10/30 06:49:45;;;;;;;0.20;0.20;;;;;;;;;;5043767;28;20209;-71
2021/10/30 06:52:11;;;;;;;0.10;0.10;;;;;;;;;;5043216;28;20488;-71
2021/10/30 06:54:37;;;;;;;0.30;0.30;;;;;;;;;;5043037;28;20210;-71
2021/10/30 06:57:05;;;;;;;0.10;0.10;;;;;;;;;;5043213;28;20251;-71
2021/10/30 06:59:31;;;;;;;0.17;0.17;;;;;;;;;;5061928;28;20208;-72
2021/10/30 07:01:58;;;;;;;0.10;0.10;;;;;;;;;;5060336;28;20208;-71
2021/10/30 07:04:25;;;;;;;2.60;2.47;;;;;;;;;;5049860;28;20208;-71
2021/10/30 07:06:51;;;;;;;2.50;2.40;;;;;;;;;;5045184;28;20204;-71
2021/10/30 07:09:17;;;;;;;0.20;0.20;;;;;;;;;;5051181;28;20234;-70
2021/10/30 07:11:44;;;;;;;0.17;0.17;;;;;;;;;;5049079;28;20526;-70
2021/10/30 07:14:10;;;;;;;0.10;0.10;;;;;;;;;;5050537;28;20280;-71
2021/10/30 07:16:38;;;;;;;0.10;0.10;;;;;;;;;;5047362;28;20377;-71
2021/10/30 07:19:04;;;;;;;0.20;0.20;;;;;;;;;;5058756;28;20246;-70
2021/10/30 07:21:31;;;;;;;0.20;0.20;;;;;;;;;;5061049;28;20199;-70
2021/10/30 07:24:00;;;;;;;0.93;0.93;;;;;;;;;;5048000;28;20208;-70
2021/10/30 07:26:26;;;;;;;0.10;0.10;;;;;;;;;;5052290;28;20238;-70
2021/10/30 07:28:52;;;;;;;1.83;1.80;;;;;;;;;;5055372;28;20204;-70
2021/10/30 07:31:19;;;;;;;0.10;0.10;;;;;;;;;;5051800;28;20239;-70
2021/10/30 07:33:45;;;;;;;0.10;0.10;;;;;;;;;;5051336;28;20500;-70
2021/10/30 07:36:11;;;;;;;0.37;0.37;;;;;;;;;;5050898;28;20261;-70
2021/10/30 07:38:39;;;;;;;0.10;0.10;;;;;;;;;;5054620;28;20418;-70
2021/10/30 07:41:05;;;;;;;0.40;0.40;;;;;;;;;;5043205;28;20258;-70
2021/10/30 07:43:32;;;;;;;0.10;0.10;;;;;;;;;;5055727;28;20200;-71
2021/10/30 07:45:58;;;;;;;0.43;0.43;;;;;;;;;;5062554;28;20204;-71
2021/10/30 07:48:24;;;;;;;0.23;0.23;;;;;;;;;;5057304;28;20210;-70
2021/10/30 07:50:50;;;;;;;0.10;0.10;;;;;;;;;;5049327;28;20226;-70
2021/10/30 07:53:17;;;;;;;0.10;0.10;;;;;;;;;;5053614;28;20205;-72
2021/10/30 07:55:47;;;;;;;0.10;0.10;;;;;;;;;;5049390;28;20246;-71
2021/10/30 07:58:13;;;;;;;0.10;0.10;;;;;;;;;;5044617;28;20299;-71
2021/10/30 08:00:40;;;;;;;0.40;0.40;;;;;;;;;;5048109;28;20250;-70
2021/10/30 08:03:06;;;;;;;0.10;0.10;;;;;;;;;;5051791;28;20249;-71
2021/10/30 08:05:32;;;;;;;0.10;0.10;;;;;;;;;;5054993;28;20238;-70
2021/10/30 08:07:58;;;;;;;0.10;0.10;;;;;;;;;;5062481;28;20203;-71
2021/10/30 08:10:27;;;;;;;0.10;0.10;;;;;;;;;;5051215;28;20221;-72
2021/10/30 08:12:54;;;;;;;0.10;0.10;;;;;;;;;;5050450;28;20547;-71
2021/10/30 08:15:20;;;;;;;0.20;0.20;;;;;;;;;;5053462;28;20222;-70
2021/10/30 08:17:47;;;;;;;0.20;0.20;;;;;;;;;;5062146;28;20206;-71
2021/10/30 08:20:13;;;;;;;0.23;0.23;;;;;;;;;;5049753;28;20211;-72
2021/10/30 08:22:40;;;;;;;0.10;0.10;;;;;;;;;;5057877;28;20209;-71
2021/10/30 08:25:07;;;;;;;0.10;0.10;;;;;;;;;;5054492;28;20202;-71
2021/10/30 08:27:33;;;;;;;0.10;0.10;;;;;;;;;;5049575;28;20380;-71
2021/10/30 08:30:01;;;;;;;0.10;0.10;;;;;;;;;;5051479;28;20230;-70
2021/10/30 08:32:27;;;;;;;0.10;0.10;;;;;;;;;;5059785;28;20276;-71
2021/10/30 08:34:53;;;;;;;0.10;0.10;;;;;;;;;;5045923;28;20263;-72
2021/10/30 08:37:20;;;;;;;0.10;0.10;;;;;;;;;;5045784;28;20236;-72
2021/10/30 08:39:46;;;;;;;0.00;0.00;;;;;;;;;;5046216;28;20206;-70
2021/10/30 08:42:12;;;;;;;0.10;0.10;;;;;;;;;;5059660;28;20218;-70
2021/10/30 08:44:40;;;;;;;0.95;0.95;;;;;;;;;;5045391;28;20293;-71
2021/10/30 08:47:07;;;;;;;0.10;0.10;;;;;;;;;;5050878;28;20245;-71
2021/10/30 08:49:35;;;;;;;0.05;0.05;;;;;;;;;;5052858;28;20257;-72
2021/10/30 08:52:02;;;;;;;0.10;0.10;;;;;;;;;;5045595;28;20254;-71
2021/10/30 08:54:28;;;;;;;0.10;0.10;;;;;;;;;;5059216;28;20372;-71
2021/10/30 08:56:54;;;;;;;0.10;0.10;;;;;;;;;;5047373;28;20208;-72
2021/10/30 08:59:36;;;;;;;0.03;0.03;;;;;;;;;;5059136;28;20210;-70
2021/10/30 09:02:03;;;;;;;0.10;0.10;;;;;;;;;;5064108;28;20374;-70
2021/10/30 09:04:31;;;;;;;0.10;0.10;;;;;;;;;;5054655;28;20275;-70
2021/10/30 09:06:58;;;;;;;0.10;0.10;;;;;;;;;;5045426;28;20215;-71
2021/10/30 09:09:24;;;;;;;0.20;0.20;;;;;;;;;;5061577;28;20210;-70
2021/10/30 09:11:54;;;;;;;0.00;0.00;;;;;;;;;;5056779;28;20535;-70
2021/10/30 09:14:21;;;;;;;0.10;0.10;;;;;;;;;;5062607;28;20223;-70
2021/10/30 09:17:09;;;;;;;0.10;0.10;;;;;;;;;;5052985;28;20387;-71
2021/10/30 09:19:37;;;;;;;0.63;0.63;;;;;;;;;;5049013;28;20243;-71
2021/10/30 09:22:03;;;;;;;0.17;0.17;;;;;;;;;;5045085;28;20211;-71
2021/10/30 09:24:30;;;;;;;0.00;0.00;;;;;;;;;;5048619;28;20419;-70
2021/10/30 09:26:56;;;;;;;0.00;0.00;;;;;;;;;;5051996;28;20323;-70
2021/10/30 09:29:22;;;;;;;0.10;0.10;;;;;;;;;;5048218;28;20215;-69
2021/10/30 09:31:49;;;;;;;0.10;0.10;;;;;;;;;;5060734;28;20461;-69
2021/10/30 09:34:26;;;;;;;0.10;0.10;;;;;;;;;;5050174;28;20208;-72
2021/10/30 09:36:56;;;;;;;0.00;0.00;;;;;;;;;;5054485;28;20243;-70
2021/10/30 09:39:23;;;;;;;0.00;0.00;;;;;;;;;;5059581;28;20203;-69
2021/10/30 09:41:52;;;;;;;0.57;0.57;;;;;;;;;;5047587;28;20206;-72
2021/10/30 09:44:22;;;;;;;0.10;0.10;;;;;;;;;;5056576;28;20369;-71
2021/10/30 09:46:52;;;;;;;0.00;0.00;;;;;;;;;;5047327;28;20272;-72
2021/10/30 09:49:20;;;;;;;0.00;0.00;;;;;;;;;;5047874;28;20202;-73
2021/10/30 09:51:46;;;;;;;0.00;0.00;;;;;;;;;;5052133;28;20263;-70
2021/10/30 09:54:30;;;;;;;0.10;0.10;;;;;;;;;;5049659;28;20472;-72
2021/10/30 09:56:56;;;;;;;0.10;0.10;;;;;;;;;;5051930;28;20500;-73
2021/10/30 09:59:22;;;;;;;0.10;0.10;;;;;;;;;;5044438;28;20208;-72
2021/10/30 10:01:50;;;;;;;0.00;0.00;;;;;;;;;;5051943;28;20200;-71
2021/10/30 10:04:17;;;;;;;0.05;0.05;;;;;;;;;;5057568;28;20430;-69
2021/10/30 10:06:44;;;;;;;0.20;0.20;;;;;;;;;;5051957;28;20213;-69
2021/10/30 10:09:10;;;;;;;0.47;0.47;;;;;;;;;;5053550;28;20214;-70
2021/10/30 10:11:39;;;;;;;0.00;0.00;;;;;;;;;;5044963;28;20235;-70
2021/10/30 10:14:06;;;;;;;6.75;4.93;;;;;;;;;;5047511;28;20487;-69
2021/10/30 10:16:32;;;;;;;0.05;0.05;;;;;;;;;;5050256;28;20244;-70
2021/10/30 10:18:59;;;;;;;0.00;0.00;;;;;;;;;;5056727;28;20427;-68
2021/10/30 10:21:27;;;;;;;0.10;0.10;;;;;;;;;;5043464;28;20208;-68
2021/10/30 10:23:54;;;;;;;3.35;3.20;;;;;;;;;;5043711;28;20436;-68
2021/10/30 10:26:29;;;;;;;0.10;0.10;;;;;;;;;;5043658;28;20255;-67
2021/10/30 10:29:03;;;;;;;0.00;0.00;;;;;;;;;;5043480;28;20199;-67
2021/10/30 10:31:29;;;;;;;0.00;0.00;;;;;;;;;;5043559;28;20468;-67
2021/10/30 10:34:08;;;;;;;0.08;0.08;;;;;;;;;;5043381;28;20207;-66
2021/10/30 10:36:35;;;;;;;0.05;0.05;;;;;;;;;;5043378;28;20400;-66
2021/10/30 10:39:11;;;;;;;0.20;0.20;;;;;;;;;;5057349;28;20226;-65
2021/10/30 10:41:48;;;;;;;1.00;1.00;;;;;;;;;;5042905;28;20204;-65
2021/10/30 10:44:16;;;;;;;0.20;0.20;;;;;;;;;;5042944;28;20253;-67
2021/10/30 10:46:49;;;;;;;0.00;0.00;;;;;;;;;;5054920;28;20526;-67
2021/10/30 10:49:15;;;;;;;0.00;0.00;;;;;;;;;;5044868;28;20203;-66
2021/10/30 10:51:46;;;;;;;0.00;0.00;;;;;;;;;;5043325;28;20232;-66
2021/10/30 10:54:14;;;;;;;0.10;0.10;;;;;;;;;;5053132;28;20208;-68
2021/10/30 10:56:56;;;;;;;0.30;0.30;;;;;;;;;;5056411;28;20205;-67
2021/10/30 10:59:38;;;;;;;0.20;0.20;;;;;;;;;;5055869;28;20268;-67
2021/10/30 11:02:19;;;;;;;1.90;1.77;;;;;;;;;;5044527;28;20308;-67
2021/10/30 11:05:20;;;;;;;0.10;0.10;;;;;;;;;;5055978;28;20196;-67
2021/10/30 11:08:00;;;;;;;0.00;0.00;;;;;;;;;;5059621;28;20208;-67
2021/10/30 11:10:27;;;;;;;0.10;0.10;;;;;;;;;;5056224;28;20365;-67
2021/10/30 11:13:04;;;;;;;0.10;0.10;;;;;;;;;;5056188;28;20224;-68
2021/10/30 11:15:40;;;;;;;0.10;0.10;;;;;;;;;;5063026;28;20245;-68
2021/10/30 11:18:08;;;;;;;0.10;0.10;;;;;;;;;;5049573;28;20241;-67
2021/10/30 11:20:35;;;;;;;1.65;0.93;;;;;;;;;;5059648;28;20499;-67
2021/10/30 11:23:02;;;;;;;0.00;0.00;;;;;;;;;;5047170;28;20197;-68
2021/10/30 11:25:29;;;;;;;0.10;0.10;;;;;;;;;;5043331;28;20278;-68
2021/10/30 11:27:56;;;;;;;0.00;0.00;;;;;;;;;;5060094;28;20218;-67
2021/10/30 11:30:34;;;;;;;0.20;0.20;;;;;;;;;;5058092;28;20557;-67
2021/10/30 11:33:01;;;;;;;0.20;0.20;;;;;;;;;;5054710;28;20231;-67
2021/10/30 11:35:28;;;;;;;0.00;0.00;;;;;;;;;;5057032;28;20219;-67
2021/10/30 11:37:54;;;;;;;0.00;0.00;;;;;;;;;;5062501;28;20549;-67
2021/10/30 11:40:20;;;;;;;1.00;1.00;;;;;;;;;;5061947;28;20210;-68
2021/10/30 11:42:47;;;;;;;0.00;0.00;;;;;;;;;;5062443;28;20202;-68
2021/10/30 11:45:14;;;;;;;0.03;0.03;;;;;;;;;;5061675;28;20207;-68
2021/10/30 11:47:42;;;;;;;0.10;0.10;;;;;;;;;;5050746;28;20493;-68
2021/10/30 11:50:10;;;;;;;0.10;0.10;;;;;;;;;;5050734;28;20524;-68
2021/10/30 11:52:42;;;;;;;0.10;0.10;;;;;;;;;;5049524;28;20221;-69
2021/10/30 11:55:08;;;;;;;0.10;0.10;;;;;;;;;;5060064;28;20243;-68
2021/10/30 11:57:44;;;;;;;0.00;0.00;;;;;;;;;;5065806;28;20209;-68
2021/10/30 12:00:10;;;;;;;0.08;0.08;;;;;;;;;;5064143;28;20245;-67
2021/10/30 12:02:36;;;;;;;0.10;0.10;;;;;;;;;;5066649;28;20203;-67
2021/10/30 12:05:09;;;;;;;0.05;0.05;;;;;;;;;;5052193;28;20523;-68
2021/10/30 12:07:37;;;;;;;0.05;0.05;;;;;;;;;;5066390;28;20450;-68
2021/10/30 12:10:03;;;;;;;0.10;0.10;;;;;;;;;;5065224;28;20311;-69
2021/10/30 12:12:29;;;;;;;0.20;0.20;;;;;;;;;;5046391;28;20242;-69
2021/10/30 12:14:57;;;;;;;0.10;0.10;;;;;;;;;;5065590;28;20216;-70
2021/10/30 12:17:24;;;;;;;0.10;0.10;;;;;;;;;;5058307;28;20242;-69
2021/10/30 12:19:54;;;;;;;8.88;1.27;;;;;;;;;;5051946;28;20209;-68
2021/10/30 12:22:22;;;;;;;0.10;0.10;;;;;;;;;;5046283;28;20200;-68
2021/10/30 12:24:57;;;;;;;0.10;0.10;;;;;;;;;;5059187;28;20289;-69
2021/10/30 12:27:24;;;;;;;0.10;0.10;;;;;;;;;;5046207;28;20485;-69
2021/10/30 12:29:50;;;;;;;0.17;0.17;;;;;;;;;;5058654;28;20262;-69
2021/10/30 12:32:17;;;;;;;0.10;0.10;;;;;;;;;;5051791;28;20232;-70
2021/10/30 12:34:54;;;;;;;0.10;0.10;;;;;;;;;;5054775;28;20282;-69
2021/10/30 12:37:25;;;;;;;0.10;0.10;;;;;;;;;;5064176;28;20203;-69
2021/10/30 12:39:56;;;;;;;0.10;0.10;;;;;;;;;;5054670;28;20274;-69
2021/10/30 12:42:22;;;;;;;0.10;0.10;;;;;;;;;;5059860;28;20436;-70
2021/10/30 12:44:50;;;;;;;0.10;0.10;;;;;;;;;;5055573;28;20205;-69
2021/10/30 12:47:17;;;;;;;0.10;0.10;;;;;;;;;;5049573;28;20244;-70
2021/10/30 12:49:45;;;;;;;0.20;0.20;;;;;;;;;;5045750;28;20211;-70
2021/10/30 12:52:13;;;;;;;0.10;0.10;;;;;;;;;;5059501;28;20249;-69
2021/10/30 12:54:43;;;;;;;4.33;1.40;;;;;;;;;;5045719;28;20273;-69
2021/10/30 12:57:22;;;;;;;13.03;7.97;;;;;;;;;;5045909;28;20242;-69
2021/10/30 12:59:59;;;;;;;0.10;0.10;;;;;;;;;;5045200;28;20197;-69
2021/10/30 13:02:25;;;;;;;0.40;0.40;;;;;;;;;;5045470;28;20201;-68
2021/10/30 13:04:52;;;;;;;0.10;0.10;;;;;;;;;;5044552;28;20197;-69
2021/10/30 13:07:18;;;;;;;0.10;0.10;;;;;;;;;;5045169;28;20207;-68
2021/10/30 13:09:53;;;;;;;0.10;0.10;;;;;;;;;;5059269;28;20203;-69
2021/10/30 13:12:19;;;;;;;0.30;0.30;;;;;;;;;;5045172;28;20217;-69
2021/10/30 13:14:46;;;;;;;13.30;2.33;;;;;;;;;;5063212;28;20222;-69
2021/10/30 13:17:12;;;;;;;0.00;0.00;;;;;;;;;;5054246;28;20203;-69
2021/10/30 13:19:38;;;;;;;0.30;0.30;;;;;;;;;;5045199;28;20209;-70
2021/10/30 13:22:05;;;;;;;0.10;0.10;;;;;;;;;;5044744;28;20201;-69
2021/10/30 13:24:31;;;;;;;0.10;0.10;;;;;;;;;;5055470;28;20213;-69
2021/10/30 13:27:00;;;;;;;4.40;4.20;;;;;;;;;;5064970;28;20213;-68
2021/10/30 13:29:26;;;;;;;0.10;0.10;;;;;;;;;;5055708;28;20233;-69
2021/10/30 13:31:53;;;;;;;0.30;0.30;;;;;;;;;;5044483;28;20243;-69
2021/10/30 13:34:19;;;;;;;0.10;0.10;;;;;;;;;;5052162;28;20206;-69
2021/10/30 13:36:45;;;;;;;0.10;0.10;;;;;;;;;;5051282;28;20269;-69
2021/10/30 13:39:11;;;;;;;0.30;0.30;;;;;;;;;;5050132;28;20210;-69
2021/10/30 13:41:38;;;;;;;0.10;0.10;;;;;;;;;;5053183;28;20279;-69
2021/10/30 13:44:05;;;;;;;0.10;0.10;;;;;;;;;;5058652;28;20201;-70
2021/10/30 13:46:33;;;;;;;0.20;0.20;;;;;;;;;;5044634;28;20441;-70
2021/10/30 13:48:59;;;;;;;0.10;0.10;;;;;;;;;;5046617;28;20206;-69
2021/10/30 13:51:26;;;;;;;0.10;0.10;;;;;;;;;;5056315;28;20205;-70
2021/10/30 13:53:54;;;;;;;0.10;0.10;;;;;;;;;;5044016;28;20280;-69
2021/10/30 13:56:21;;;;;;;0.10;0.10;;;;;;;;;;5044390;28;20273;-69
2021/10/30 13:58:47;;;;;;;0.50;0.50;;;;;;;;;;5044472;28;20486;-69
2021/10/30 14:01:17;;;;;;;0.10;0.10;;;;;;;;;;5058002;28;20269;-69
2021/10/30 14:03:43;;;;;;;0.10;0.10;;;;;;;;;;5044334;28;20212;-69
2021/10/30 14:06:10;;;;;;;0.10;0.10;;;;;;;;;;5043727;28;20252;-70
2021/10/30 14:08:36;;;;;;;0.10;0.10;;;;;;;;;;5044161;28;20229;-69
2021/10/30 14:11:03;;;;;;;1.37;1.37;;;;;;;;;;5058229;28;20276;-70
2021/10/30 14:13:29;;;;;;;0.10;0.10;;;;;;;;;;5044329;28;20254;-69
2021/10/30 14:15:55;;;;;;;3.70;3.40;;;;;;;;;;5063091;28;20193;-69
2021/10/30 14:18:27;;;;;;;0.00;0.00;;;;;;;;;;5061535;28;20267;-69
2021/10/30 14:20:53;;;;;;;0.10;0.10;;;;;;;;;;5044049;28;20285;-69
2021/10/30 14:23:19;;;;;;;0.10;0.10;;;;;;;;;;5043617;28;20210;-69
2021/10/30 14:25:46;;;;;;;0.20;0.20;;;;;;;;;;5043949;28;20255;-69
2021/10/30 14:28:12;;;;;;;0.03;0.03;;;;;;;;;;5043903;28;20265;-70
2021/10/30 14:30:38;;;;;;;4.63;0.77;;;;;;;;;;5048774;28;20405;-69
2021/10/30 14:33:05;;;;;;;0.00;0.00;;;;;;;;;;5052585;28;20229;-69
2021/10/30 14:35:32;;;;;;;0.10;0.10;;;;;;;;;;5046792;28;20240;-69
2021/10/30 14:37:58;;;;;;;0.10;0.10;;;;;;;;;;5053878;28;20213;-69
2021/10/30 14:40:25;;;;;;;0.10;0.10;;;;;;;;;;5043494;28;20248;-69
2021/10/30 14:42:51;;;;;;;0.40;0.40;;;;;;;;;;5043586;28;20209;-68
2021/10/30 14:45:22;;;;;;;0.10;0.10;;;;;;;;;;5043157;28;20420;-69